createdAt,value
2023-04-30T05:12:58.076Z,97.10
2023-04-30T05:21:09.194Z,97.30
2023-04-30T05:30:35.789Z,96.70
2023-04-30T05:33:03.767Z,96.70
2023-04-30T05:39:38.568Z,96.80
2023-04-30T05:42:06.290Z,97.10
2023-04-30T05:44:33.847Z,97.30
2023-04-30T05:51:43.317Z,96.80
2023-04-30T05:54:10.905Z,96.70
2023-04-30T05:56:38.467Z,96.70
2023-04-30T05:59:05.989Z,96.80
2023-04-30T06:01:33.960Z,96.80
2023-04-30T06:04:01.488Z,96.50
2023-04-30T06:06:28.999Z,96.30
2023-04-30T06:08:56.529Z,96.30
2023-04-30T06:11:25.869Z,96.50
2023-04-30T06:13:54.301Z,96.40
2023-04-30T06:16:23.671Z,96.40
2023-04-30T06:18:53.498Z,96.10
2023-04-30T06:21:21.432Z,96.20
2023-04-30T06:23:48.919Z,95.90
2023-04-30T06:26:16.408Z,95.70
2023-04-30T06:28:43.858Z,95.50
2023-04-30T06:31:11.456Z,95.70
2023-04-30T06:33:38.931Z,95.80
2023-04-30T06:36:06.873Z,95.70
2023-04-30T06:38:34.357Z,95.70
2023-04-30T06:41:02.117Z,95.80
2023-04-30T06:43:29.606Z,95.80
2023-04-30T06:45:57.103Z,95.80
2023-04-30T06:48:24.830Z,95.80
2023-04-30T06:50:52.731Z,95.80
2023-04-30T06:53:20.176Z,95.70
2023-04-30T06:55:48.454Z,95.80
2023-04-30T06:58:16.073Z,95.90
2023-04-30T07:00:43.789Z,95.90
2023-04-30T07:03:11.467Z,95.80
2023-04-30T07:05:38.980Z,95.80
2023-04-30T07:08:07.570Z,95.80
2023-04-30T07:10:35.120Z,95.70
2023-04-30T07:13:02.602Z,95.80
2023-04-30T07:15:30.052Z,95.80
2023-04-30T07:17:58.062Z,95.40
2023-04-30T07:20:26.033Z,95.40
2023-04-30T07:22:54.656Z,95.30
2023-04-30T07:25:22.213Z,95.60
2023-04-30T07:27:51.733Z,95.20
2023-04-30T07:30:19.210Z,95.00
2023-04-30T07:32:47.902Z,95.20
2023-04-30T07:35:15.728Z,95.10
2023-04-30T07:37:44.012Z,94.90
2023-04-30T07:40:15.270Z,94.60
2023-04-30T07:42:47.691Z,94.90
2023-04-30T07:45:15.263Z,94.50
2023-04-30T07:47:42.850Z,94.30
2023-04-30T07:50:12.473Z,94.30
2023-04-30T07:52:39.914Z,94.00
2023-04-30T07:55:08.227Z,93.80
2023-04-30T07:57:36.316Z,93.80
2023-04-30T08:00:04.424Z,93.80
2023-04-30T08:02:32.186Z,93.40
2023-04-30T08:04:59.810Z,93.50
2023-04-30T08:07:27.224Z,93.40
2023-04-30T08:09:54.887Z,93.40
2023-04-30T08:12:22.450Z,93.30
2023-04-30T08:14:49.913Z,93.10
2023-04-30T08:17:17.402Z,93.30
2023-04-30T08:19:45.987Z,93.00
2023-04-30T08:22:13.474Z,92.80
2023-04-30T08:24:41.000Z,92.40
2023-04-30T08:27:08.524Z,92.40
2023-04-30T08:29:36.004Z,92.20
2023-04-30T08:32:05.814Z,92.00
2023-04-30T08:34:33.565Z,92.30
2023-04-30T08:37:01.661Z,92.40
2023-04-30T08:39:29.130Z,92.30
2023-04-30T08:42:00.907Z,91.70
2023-04-30T08:44:29.361Z,91.80
2023-04-30T08:47:00.788Z,91.40
2023-04-30T08:49:32.947Z,91.70
2023-04-30T08:52:01.329Z,91.80
2023-04-30T08:54:34.625Z,91.30
2023-04-30T08:57:02.752Z,91.20
2023-04-30T08:59:30.564Z,91.50
2023-04-30T09:02:00.086Z,91.30
2023-04-30T09:04:28.086Z,91.30
2023-04-30T09:07:04.553Z,91.10
2023-04-30T09:09:39.363Z,91.10
2023-04-30T09:12:20.036Z,91.00
2023-04-30T09:15:06.574Z,90.80
2023-04-30T09:17:36.102Z,91.20
2023-04-30T09:20:14.808Z,90.70
2023-04-30T09:22:43.232Z,90.70
2023-04-30T09:25:14.059Z,90.60
2023-04-30T09:27:41.537Z,90.50
2023-04-30T09:30:30.052Z,90.00
2023-04-30T09:32:57.495Z,90.70
2023-04-30T09:35:40.435Z,90.10
2023-04-30T09:38:08.211Z,90.10
2023-04-30T09:40:42.118Z,90.70
2023-04-30T09:43:09.827Z,90.30
2023-04-30T09:45:52.757Z,90.00
2023-04-30T09:48:24.597Z,89.70
2023-04-30T09:50:52.699Z,89.90
2023-04-30T09:53:21.030Z,89.20
2023-04-30T09:55:51.872Z,88.70
2023-04-30T09:58:20.478Z,88.20
2023-04-30T10:00:50.679Z,88.20
2023-04-30T10:03:19.258Z,88.00
2023-04-30T10:05:50.180Z,86.90
2023-04-30T10:08:46.922Z,87.10
2023-04-30T10:11:21.996Z,86.30
2023-04-30T10:14:11.894Z,87.00
2023-04-30T10:17:14.945Z,86.80
2023-04-30T10:19:49.898Z,85.70
2023-04-30T10:22:18.335Z,85.90
2023-04-30T10:24:47.539Z,85.70
2023-04-30T10:27:15.248Z,86.10
2023-04-30T10:29:44.428Z,85.70
2023-04-30T10:32:14.129Z,84.30
2023-04-30T10:35:21.191Z,84.50
2023-04-30T10:38:13.110Z,85.20
2023-04-30T10:40:40.696Z,85.10
2023-04-30T10:43:11.126Z,84.90
2023-04-30T10:45:43.939Z,84.00
2023-04-30T10:48:11.800Z,83.90
2023-04-30T10:50:46.720Z,82.90
2023-04-30T10:53:21.031Z,81.90
2023-04-30T10:56:09.337Z,82.30
2023-04-30T10:58:40.585Z,82.50
2023-04-30T11:01:15.576Z,81.80
2023-04-30T11:04:08.865Z,81.40
2023-04-30T11:07:07.318Z,81.10
2023-04-30T11:09:39.544Z,81.20
2023-04-30T11:12:33.461Z,80.50
2023-04-30T11:15:15.869Z,80.70
2023-04-30T11:17:48.108Z,80.20
2023-04-30T11:20:23.582Z,80.00
2023-04-30T11:23:32.269Z,80.40
2023-04-30T11:26:08.240Z,80.60
2023-04-30T11:28:38.555Z,80.90
2023-04-30T11:31:06.495Z,81.10
2023-04-30T11:33:35.688Z,81.30
2023-04-30T11:36:03.910Z,81.10
2023-04-30T11:38:37.085Z,80.10
2023-04-30T11:41:05.654Z,80.40
2023-04-30T11:43:35.126Z,79.40
2023-04-30T11:46:13.338Z,81.20
2023-04-30T11:48:45.561Z,80.90
2023-04-30T11:51:25.107Z,80.60
2023-04-30T11:53:53.834Z,80.00
2023-04-30T11:56:26.241Z,81.20
2023-04-30T11:58:55.870Z,80.50
2023-04-30T12:01:30.994Z,80.70
2023-04-30T12:03:58.865Z,80.60
2023-04-30T12:06:29.366Z,80.30
2023-04-30T12:09:04.242Z,80.00
2023-04-30T12:11:35.064Z,79.30
2023-04-30T12:14:10.738Z,78.60
2023-04-30T12:16:50.617Z,79.50
2023-04-30T12:19:25.444Z,77.10
2023-04-30T12:21:55.190Z,78.10
2023-04-30T12:24:27.172Z,76.50
2023-04-30T12:26:54.847Z,76.30
2023-04-30T12:29:25.080Z,76.90
2023-04-30T12:31:54.067Z,76.30
2023-04-30T12:34:22.097Z,76.00
2023-04-30T12:36:50.095Z,73.90
2023-04-30T12:39:17.843Z,73.70
2023-04-30T12:41:49.779Z,73.10
2023-04-30T12:44:28.396Z,73.90
2023-04-30T12:47:00.723Z,72.30
2023-04-30T12:49:36.792Z,72.80
2023-04-30T12:52:14.422Z,73.60
2023-04-30T12:54:42.035Z,73.80
2023-04-30T12:57:13.162Z,73.10
2023-04-30T13:00:00.512Z,72.30
2023-04-30T13:02:32.311Z,72.70
2023-04-30T13:05:00.096Z,72.50
2023-04-30T13:07:40.831Z,72.20
2023-04-30T13:10:09.813Z,73.10
2023-04-30T13:12:37.228Z,73.50
2023-04-30T13:15:05.684Z,72.10
2023-04-30T13:17:33.587Z,73.00
2023-04-30T13:20:01.079Z,71.70
2023-04-30T13:22:29.762Z,72.10
2023-04-30T13:24:57.886Z,71.70
2023-04-30T13:27:25.398Z,72.50
2023-04-30T13:29:53.841Z,73.60
2023-04-30T13:32:21.611Z,73.50
2023-04-30T13:34:49.356Z,72.80
2023-04-30T13:37:17.014Z,74.00
2023-04-30T13:39:44.517Z,71.90
2023-04-30T13:42:12.089Z,72.70
2023-04-30T13:44:40.506Z,73.80
2023-04-30T13:47:08.417Z,72.10
2023-04-30T13:49:36.403Z,72.40
2023-04-30T13:52:06.958Z,72.20
2023-04-30T13:54:34.443Z,72.60
2023-04-30T13:57:01.963Z,72.70
2023-04-30T13:59:29.661Z,70.90
2023-04-30T14:01:57.411Z,72.20
2023-04-30T14:04:24.924Z,71.10
2023-04-30T14:06:56.594Z,71.60
2023-04-30T14:09:24.540Z,71.30
2023-04-30T14:11:51.964Z,71.90
2023-04-30T14:14:19.367Z,71.10
2023-04-30T14:16:46.856Z,72.80
2023-04-30T14:19:14.464Z,71.70
2023-04-30T14:21:42.179Z,71.80
2023-04-30T14:24:12.629Z,72.00
2023-04-30T14:26:43.489Z,72.70
2023-04-30T14:29:11.142Z,73.00
2023-04-30T14:31:38.847Z,73.90
2023-04-30T14:34:06.330Z,73.10
2023-04-30T14:36:36.291Z,72.00
2023-04-30T14:39:04.812Z,71.80
2023-04-30T14:41:38.373Z,73.60
2023-04-30T14:44:06.280Z,73.00
2023-04-30T14:46:34.918Z,72.60
2023-04-30T14:49:02.561Z,72.00
2023-04-30T14:51:32.039Z,71.90
2023-04-30T14:54:00.632Z,72.50
2023-04-30T14:56:28.246Z,72.90
2023-04-30T14:58:55.772Z,72.90
2023-04-30T15:01:23.597Z,71.80
2023-04-30T15:03:51.247Z,72.20
2023-04-30T15:06:19.463Z,71.60
2023-04-30T15:08:47.102Z,71.90
2023-04-30T15:11:14.938Z,72.80
2023-04-30T15:13:42.415Z,74.20
2023-04-30T15:16:10.033Z,72.90
2023-04-30T15:18:37.580Z,72.40
2023-04-30T15:21:05.402Z,72.70
2023-04-30T15:23:33.767Z,72.40
2023-04-30T15:26:03.857Z,72.30
2023-04-30T15:28:34.749Z,73.40
2023-04-30T15:31:03.197Z,71.70
2023-04-30T15:33:31.580Z,72.20
2023-04-30T15:35:59.733Z,72.10
2023-04-30T15:38:27.603Z,71.80
2023-04-30T15:40:55.029Z,72.20
2023-04-30T15:43:22.447Z,71.80
2023-04-30T15:45:50.127Z,72.00
2023-04-30T15:48:17.609Z,73.50
2023-04-30T15:50:45.053Z,72.60
2023-04-30T15:53:12.619Z,72.30
2023-04-30T15:55:40.548Z,73.30
2023-04-30T15:58:08.108Z,72.30
2023-04-30T16:00:35.700Z,72.80
2023-04-30T16:03:03.260Z,73.20
2023-04-30T16:05:31.607Z,73.60
2023-04-30T16:07:59.859Z,72.70
2023-04-30T16:10:27.775Z,72.70
2023-04-30T16:12:55.266Z,72.70
2023-04-30T16:15:24.373Z,72.40
2023-04-30T16:17:52.215Z,72.80
2023-04-30T16:20:20.595Z,72.30
2023-04-30T16:22:49.730Z,73.30
2023-04-30T16:25:17.348Z,72.80
2023-04-30T16:27:45.215Z,72.90
2023-04-30T16:30:13.720Z,74.00
2023-04-30T16:32:41.882Z,73.00
2023-04-30T16:35:10.048Z,74.00
2023-04-30T16:37:37.501Z,73.10
2023-04-30T16:40:07.705Z,73.50
2023-04-30T16:42:35.568Z,73.90
2023-04-30T16:45:03.714Z,73.30
2023-04-30T16:47:32.056Z,73.90
2023-04-30T16:50:00.669Z,74.50
2023-04-30T16:52:28.815Z,73.50
2023-04-30T16:54:56.238Z,74.20
2023-04-30T16:57:25.320Z,73.90
2023-04-30T16:59:53.326Z,73.60
2023-04-30T17:02:21.266Z,73.10
2023-04-30T17:04:48.832Z,72.60
2023-04-30T17:07:17.567Z,73.10
2023-04-30T17:09:46.081Z,73.30
2023-04-30T17:12:13.569Z,73.30
2023-04-30T17:14:41.018Z,72.90
2023-04-30T17:17:08.546Z,72.50
2023-04-30T17:19:36.058Z,73.20
2023-04-30T17:22:03.674Z,73.00
2023-04-30T17:24:31.187Z,72.40
2023-04-30T17:27:01.026Z,72.60
2023-04-30T17:29:28.634Z,72.30
2023-04-30T17:31:56.466Z,72.50
2023-04-30T17:34:24.145Z,72.50
2023-04-30T17:36:51.633Z,72.00
2023-04-30T17:39:19.549Z,72.80
2023-04-30T17:41:47.442Z,73.70
2023-04-30T17:44:15.989Z,72.80
2023-04-30T17:46:43.932Z,72.60
2023-04-30T17:49:11.370Z,72.40
2023-04-30T17:51:38.840Z,71.80
2023-04-30T17:54:06.325Z,72.80
2023-04-30T17:56:39.626Z,73.20
2023-04-30T17:59:07.692Z,72.60
2023-04-30T18:01:35.237Z,72.50
2023-04-30T18:04:03.921Z,72.20
2023-04-30T18:06:31.515Z,72.00
2023-04-30T18:09:01.450Z,72.40
2023-04-30T18:11:29.233Z,72.40
2023-04-30T18:13:56.688Z,71.50
2023-04-30T18:16:24.267Z,72.60
2023-04-30T18:18:51.786Z,72.60
2023-04-30T18:21:19.464Z,72.20
2023-04-30T18:23:48.156Z,72.00
2023-04-30T18:26:15.685Z,73.10
2023-04-30T18:28:43.170Z,72.60
2023-04-30T18:31:11.799Z,71.30
2023-04-30T18:33:40.075Z,72.20
2023-04-30T18:36:07.724Z,72.00
2023-04-30T18:38:35.534Z,72.20
2023-04-30T18:41:02.997Z,71.60
2023-04-30T18:43:30.690Z,71.80
2023-04-30T18:45:58.840Z,71.40
2023-04-30T18:48:26.361Z,71.40
2023-04-30T18:50:53.819Z,71.80
2023-04-30T18:53:21.299Z,72.20
2023-04-30T18:55:48.705Z,70.90
2023-04-30T18:58:16.141Z,71.90
2023-04-30T19:00:43.791Z,71.90
2023-04-30T19:03:11.385Z,72.40
2023-04-30T19:05:38.901Z,72.00
2023-04-30T19:08:08.008Z,71.50
2023-04-30T19:10:36.458Z,71.80
2023-04-30T19:13:04.239Z,71.90
2023-04-30T19:15:31.752Z,72.40
2023-04-30T19:17:59.379Z,72.40
2023-04-30T19:20:27.012Z,72.20
2023-04-30T19:22:54.452Z,71.90
2023-04-30T19:25:23.549Z,72.90
2023-04-30T19:27:51.601Z,73.30
2023-04-30T19:30:19.107Z,73.00
2023-04-30T19:32:47.064Z,72.10
2023-04-30T19:35:15.486Z,72.70
2023-04-30T19:37:43.033Z,73.00
2023-04-30T19:40:12.079Z,72.90
2023-04-30T19:42:40.231Z,72.90
2023-04-30T19:45:09.895Z,72.80
2023-04-30T19:47:38.274Z,73.10
2023-04-30T19:50:07.318Z,73.00
2023-04-30T19:52:34.821Z,73.00
2023-04-30T19:55:02.422Z,73.00
2023-04-30T19:57:34.943Z,72.90
2023-04-30T20:00:04.578Z,73.50
2023-04-30T20:03:23.993Z,73.60
2023-04-30T20:05:52.479Z,73.30
2023-04-30T20:08:20.117Z,73.60
2023-04-30T20:10:49.165Z,73.00
2023-04-30T20:13:17.937Z,73.20
2023-04-30T20:15:45.593Z,73.10
2023-04-30T20:18:13.176Z,73.30
2023-04-30T20:20:40.618Z,73.40
2023-04-30T20:23:17.838Z,73.60
2023-04-30T20:25:46.792Z,73.60
2023-04-30T20:28:18.429Z,73.60
2023-04-30T20:30:48.198Z,73.70
2023-04-30T20:33:16.160Z,73.90
2023-04-30T20:35:46.247Z,74.10
2023-04-30T20:38:17.264Z,74.20
2023-04-30T20:40:46.496Z,74.30
2023-04-30T20:43:14.197Z,74.70
2023-04-30T20:45:43.837Z,74.40
2023-04-30T20:48:11.462Z,74.60
2023-04-30T20:50:39.136Z,74.60
2023-04-30T20:53:08.347Z,74.40
2023-04-30T20:55:37.020Z,74.80
2023-04-30T20:58:04.567Z,74.90
2023-04-30T21:00:32.075Z,75.10
2023-04-30T21:02:59.765Z,76.30
2023-04-30T21:05:30.228Z,76.30
2023-04-30T21:08:02.204Z,76.30
2023-04-30T21:10:36.556Z,76.50
2023-04-30T21:13:06.092Z,76.80
2023-04-30T21:15:36.408Z,76.50
2023-04-30T21:18:04.312Z,76.50
2023-04-30T21:20:32.171Z,76.70
2023-04-30T21:22:59.797Z,76.70
2023-04-30T21:25:27.388Z,76.70
2023-04-30T21:27:55.412Z,76.70
2023-04-30T21:30:25.640Z,76.70
2023-04-30T21:32:58.722Z,76.80
2023-04-30T21:35:30.406Z,76.90
2023-04-30T21:37:57.999Z,77.20
2023-04-30T21:40:25.763Z,77.10
2023-04-30T21:42:53.359Z,77.40
2023-04-30T21:45:20.989Z,77.60
2023-04-30T21:47:48.868Z,77.50
2023-04-30T21:50:17.099Z,77.50
2023-04-30T21:52:44.683Z,77.40
2023-04-30T21:55:12.480Z,77.40
2023-04-30T21:57:39.932Z,77.30
2023-04-30T22:00:14.477Z,77.60
2023-04-30T22:02:42.623Z,77.40
2023-04-30T22:05:13.044Z,77.50
2023-04-30T22:07:41.334Z,77.60
2023-04-30T22:10:10.724Z,78.10
2023-04-30T22:12:38.726Z,78.30
2023-04-30T22:15:08.271Z,78.40
2023-04-30T22:17:35.793Z,79.00
2023-04-30T22:20:06.903Z,78.80
2023-04-30T22:22:34.892Z,79.10
2023-04-30T22:25:02.964Z,78.50
2023-04-30T22:27:31.520Z,77.90
2023-04-30T22:29:59.193Z,77.90
2023-04-30T22:32:26.713Z,77.80
2023-04-30T22:34:54.335Z,78.20
2023-04-30T22:37:21.892Z,78.20
2023-04-30T22:39:49.682Z,78.30
2023-04-30T22:42:17.205Z,78.30
2023-04-30T22:44:45.501Z,78.30
2023-04-30T22:47:13.324Z,78.20
2023-04-30T22:49:41.283Z,78.40
2023-04-30T22:52:09.027Z,78.70
2023-04-30T22:54:36.709Z,78.80
2023-04-30T22:57:04.260Z,78.80
2023-04-30T22:59:31.850Z,79.80
2023-04-30T23:01:59.671Z,78.90
2023-04-30T23:04:28.499Z,78.90
2023-04-30T23:06:56.709Z,79.80
2023-04-30T23:09:24.870Z,80.50
2023-04-30T23:11:52.348Z,80.80
2023-04-30T23:14:20.021Z,80.90
2023-04-30T23:16:47.550Z,79.80
2023-04-30T23:19:15.041Z,80.40
2023-04-30T23:21:42.663Z,81.10
2023-04-30T23:24:11.256Z,81.70
2023-04-30T23:26:38.924Z,80.70
2023-04-30T23:29:06.369Z,80.20
2023-04-30T23:31:33.844Z,81.30
2023-04-30T23:34:01.431Z,83.90
2023-04-30T23:36:28.966Z,86.10
2023-04-30T23:38:56.735Z,87.10
